createdAt,value
2017-08-21T00:00:41.154Z,1015.58
2017-08-21T00:01:41.173Z,1015.56
2017-08-21T00:02:41.199Z,1015.59
2017-08-21T00:03:41.222Z,1015.55
2017-08-21T00:04:41.245Z,1015.55
2017-08-21T00:05:41.263Z,1015.53
2017-08-21T00:07:41.312Z,1015.55
2017-08-21T00:08:41.340Z,1015.53
2017-08-21T00:09:41.359Z,1015.52
2017-08-21T00:10:41.386Z,1015.55
2017-08-21T00:11:41.405Z,1015.54
2017-08-21T00:12:41.431Z,1015.62
2017-08-21T00:13:41.455Z,1015.6
2017-08-21T00:14:41.476Z,1015.56
2017-08-21T00:15:41.502Z,1015.57
2017-08-21T00:16:41.521Z,1015.57
2017-08-21T00:17:41.546Z,1015.58
2017-08-21T00:18:41.570Z,1015.56
2017-08-21T00:19:41.595Z,1015.66
2017-08-21T00:20:41.617Z,1015.55
2017-08-21T00:22:41.664Z,1015.62
2017-08-21T00:23:41.685Z,1015.61
2017-08-21T00:24:41.709Z,1015.66
2017-08-21T00:25:41.733Z,1015.61
2017-08-21T00:26:41.758Z,1015.68
2017-08-21T00:27:41.777Z,1015.7
2017-08-21T00:28:41.800Z,1015.68
2017-08-21T00:29:41.825Z,1015.7
2017-08-21T00:30:41.846Z,1015.73
2017-08-21T00:31:41.873Z,1015.73
2017-08-21T00:32:41.894Z,1015.72
2017-08-21T00:33:41.921Z,1015.71
2017-08-21T00:34:41.937Z,1015.71
2017-08-21T00:35:41.965Z,1015.67
2017-08-21T00:36:41.988Z,1015.69
2017-08-21T00:37:42.011Z,1015.68
2017-08-21T00:38:42.032Z,1015.68
2017-08-21T00:39:42.060Z,1015.65
2017-08-21T00:40:42.083Z,1015.69
2017-08-21T00:41:42.102Z,1015.66
2017-08-21T00:42:42.122Z,1015.66
2017-08-21T00:43:42.153Z,1015.67
2017-08-21T00:44:42.173Z,1015.7
2017-08-21T00:45:42.194Z,1015.72
2017-08-21T00:46:42.220Z,1015.72
2017-08-21T00:47:42.240Z,1015.74
2017-08-21T00:48:42.284Z,1015.69
2017-08-21T00:49:42.288Z,1015.73
2017-08-21T00:50:42.310Z,1015.72
2017-08-21T00:51:42.336Z,1015.71
2017-08-21T00:52:42.357Z,1015.7
2017-08-21T00:54:42.405Z,1015.74
2017-08-21T00:55:42.429Z,1015.69
2017-08-21T00:56:42.452Z,1015.69
2017-08-21T00:57:42.476Z,1015.75
2017-08-21T00:58:42.498Z,1015.73
2017-08-21T00:59:42.525Z,1015.75
2017-08-21T01:00:42.546Z,1015.71
2017-08-21T01:01:42.564Z,1015.71
2017-08-21T01:02:42.589Z,1015.66
2017-08-21T01:03:42.608Z,1015.69
2017-08-21T01:04:42.636Z,1015.71
2017-08-21T01:05:42.659Z,1015.71
2017-08-21T01:06:42.684Z,1015.68
2017-08-21T01:07:42.703Z,1015.68
2017-08-21T01:08:43.033Z,1015.68
2017-08-21T01:10:42.778Z,1015.61
2017-08-21T01:11:42.799Z,1015.61
2017-08-21T01:12:42.818Z,1015.69
2017-08-21T01:13:42.846Z,1015.66
2017-08-21T01:14:42.869Z,1015.67
2017-08-21T01:15:42.891Z,1015.66
2017-08-21T01:16:42.914Z,1015.63
2017-08-21T01:17:42.940Z,1015.68
2017-08-21T01:18:42.960Z,1015.63
2017-08-21T01:19:42.984Z,1015.64
2017-08-21T01:20:43.009Z,1015.67
2017-08-21T01:21:43.031Z,1015.69
2017-08-21T01:22:43.054Z,1015.65
2017-08-21T01:23:43.075Z,1015.62
2017-08-21T01:24:43.098Z,1015.62
2017-08-21T01:26:43.140Z,1015.62
2017-08-21T01:27:43.164Z,1015.63
2017-08-21T01:28:43.192Z,1015.64
2017-08-21T01:29:43.210Z,1015.6
2017-08-21T01:30:43.238Z,1015.61
2017-08-21T01:31:43.256Z,1015.6
2017-08-21T01:32:43.284Z,1015.66
2017-08-21T01:33:43.304Z,1015.63
2017-08-21T01:34:43.329Z,1015.61
2017-08-21T01:35:43.349Z,1015.65
2017-08-21T01:36:43.377Z,1015.63
2017-08-21T01:37:43.396Z,1015.6
2017-08-21T01:38:43.422Z,1015.57
2017-08-21T01:39:43.443Z,1015.58
2017-08-21T01:40:43.464Z,1015.58
2017-08-21T01:42:43.511Z,1015.61
2017-08-21T01:43:43.540Z,1015.58
2017-08-21T01:44:43.558Z,1015.55
2017-08-21T01:45:43.584Z,1015.55
2017-08-21T01:46:43.605Z,1015.56
2017-08-21T01:47:43.627Z,1015.52
2017-08-21T01:48:43.648Z,1015.57
2017-08-21T01:49:43.670Z,1015.54
2017-08-21T01:50:43.697Z,1015.54
2017-08-21T01:51:43.720Z,1015.52
2017-08-21T01:52:43.745Z,1015.54
2017-08-21T01:53:43.767Z,1015.52
2017-08-21T01:54:43.788Z,1015.47
2017-08-21T01:55:43.811Z,1015.55
2017-08-21T01:57:43.857Z,1015.5
2017-08-21T01:58:43.881Z,1015.48
2017-08-21T01:59:43.902Z,1015.49
2017-08-21T02:00:43.925Z,1015.47
2017-08-21T02:01:43.949Z,1015.53
2017-08-21T02:02:43.973Z,1015.52
2017-08-21T02:03:43.995Z,1015.48
2017-08-21T02:04:44.020Z,1015.49
2017-08-21T02:05:44.041Z,1015.44
2017-08-21T02:06:44.062Z,1015.43
2017-08-21T02:07:44.089Z,1015.42
2017-08-21T02:08:44.111Z,1015.46
2017-08-21T02:09:44.133Z,1015.45
2017-08-21T02:10:44.159Z,1015.41
2017-08-21T02:11:44.181Z,1015.41
2017-08-21T02:12:44.203Z,1015.45
2017-08-21T02:13:44.226Z,1015.43
2017-08-21T02:14:44.247Z,1015.44
2017-08-21T02:15:44.271Z,1015.46
2017-08-21T02:16:44.292Z,1015.47
2017-08-21T02:17:44.316Z,1015.43
2017-08-21T02:18:44.342Z,1015.39
2017-08-21T02:19:44.358Z,1015.39
2017-08-21T02:20:44.385Z,1015.37
2017-08-21T02:21:44.410Z,1015.39
2017-08-21T02:22:44.428Z,1015.42
2017-08-21T02:23:44.454Z,1015.44
2017-08-21T02:24:44.476Z,1015.41
2017-08-21T02:25:44.501Z,1015.43
2017-08-21T02:26:44.522Z,1015.43
2017-08-21T02:27:44.546Z,1015.43
2017-08-21T02:29:44.593Z,1015.43
2017-08-21T02:30:44.615Z,1015.4
2017-08-21T02:31:44.636Z,1015.41
2017-08-21T02:32:44.656Z,1015.4
2017-08-21T02:33:44.694Z,1015.4
2017-08-21T02:34:44.704Z,1015.41
2017-08-21T02:35:44.729Z,1015.41
2017-08-21T02:36:44.750Z,1015.43
2017-08-21T02:37:44.776Z,1015.46
2017-08-21T02:38:44.799Z,1015.43
2017-08-21T02:39:44.821Z,1015.51
2017-08-21T02:40:44.846Z,1015.52
2017-08-21T02:41:44.865Z,1015.46
2017-08-21T02:42:44.892Z,1015.48
2017-08-21T02:43:44.911Z,1015.52
2017-08-21T02:45:44.955Z,1015.54
2017-08-21T02:46:44.982Z,1015.46
2017-08-21T02:47:45.006Z,1015.48
2017-08-21T02:48:45.025Z,1015.48
2017-08-21T02:49:45.052Z,1015.44
2017-08-21T02:50:45.072Z,1015.51
2017-08-21T02:51:45.096Z,1015.49
2017-08-21T02:52:45.119Z,1015.5
2017-08-21T02:53:45.139Z,1015.49
2017-08-21T02:54:45.162Z,1015.52
2017-08-21T02:55:45.189Z,1015.51
2017-08-21T02:56:45.207Z,1015.54
2017-08-21T02:57:45.385Z,1015.5
2017-08-21T02:58:45.256Z,1015.57
2017-08-21T02:59:45.281Z,1015.54
2017-08-21T03:01:45.326Z,1015.52
2017-08-21T03:02:45.353Z,1015.55
2017-08-21T03:03:45.373Z,1015.58
2017-08-21T03:04:45.395Z,1015.55
2017-08-21T03:05:45.413Z,1015.53
2017-08-21T03:06:45.440Z,1015.54
2017-08-21T03:07:45.463Z,1015.58
2017-08-21T03:08:45.483Z,1015.54
2017-08-21T03:09:45.510Z,1015.57
2017-08-21T03:10:45.534Z,1015.58
2017-08-21T03:11:45.557Z,1015.62
2017-08-21T03:12:45.579Z,1015.6
2017-08-21T03:13:45.602Z,1015.56
2017-08-21T03:14:45.626Z,1015.58
2017-08-21T03:15:45.648Z,1015.56
2017-08-21T03:17:45.695Z,1015.56
2017-08-21T03:18:45.715Z,1015.49
2017-08-21T03:19:45.739Z,1015.57
2017-08-21T03:20:45.759Z,1015.56
2017-08-21T03:21:45.798Z,1015.52
2017-08-21T03:22:45.810Z,1015.52
2017-08-21T03:23:45.831Z,1015.49
2017-08-21T03:24:45.850Z,1015.51
2017-08-21T03:25:45.877Z,1015.48
2017-08-21T03:26:45.898Z,1015.48
2017-08-21T03:27:45.924Z,1015.44
2017-08-21T03:28:45.947Z,1015.44
2017-08-21T03:29:45.970Z,1015.46
2017-08-21T03:30:45.994Z,1015.41
2017-08-21T03:32:46.035Z,1015.39
2017-08-21T03:33:46.057Z,1015.41
2017-08-21T03:34:46.085Z,1015.41
2017-08-21T03:35:46.112Z,1015.43
2017-08-21T03:36:46.131Z,1015.46
2017-08-21T03:37:46.153Z,1015.41
2017-08-21T03:38:46.176Z,1015.42
2017-08-21T03:39:46.200Z,1015.43
2017-08-21T03:40:46.224Z,1015.45
2017-08-21T03:41:46.245Z,1015.49
2017-08-21T03:42:46.266Z,1015.54
2017-08-21T03:43:46.293Z,1015.53
2017-08-21T03:44:46.313Z,1015.48
2017-08-21T03:45:46.337Z,1015.51
2017-08-21T03:46:46.365Z,1015.53
2017-08-21T03:47:46.383Z,1015.52
2017-08-21T03:48:46.407Z,1015.48
2017-08-21T03:49:46.428Z,1015.56
2017-08-21T03:50:46.455Z,1015.48
2017-08-21T03:51:46.475Z,1015.51
2017-08-21T03:52:46.497Z,1015.46
2017-08-21T03:53:46.521Z,1015.49
2017-08-21T03:54:46.540Z,1015.45
2017-08-21T03:55:46.569Z,1015.52
2017-08-21T03:56:46.591Z,1015.47
2017-08-21T03:57:46.610Z,1015.45
2017-08-21T03:58:46.636Z,1015.46
2017-08-21T03:59:46.659Z,1015.47
2017-08-21T04:00:46.681Z,1015.48
2017-08-21T04:01:46.705Z,1015.47
2017-08-21T04:02:46.737Z,1015.45
2017-08-21T04:04:46.775Z,1015.46
2017-08-21T04:05:46.801Z,1015.5
2017-08-21T04:06:46.820Z,1015.52
2017-08-21T04:07:46.844Z,1015.53
2017-08-21T04:08:46.864Z,1015.52
2017-08-21T04:09:46.889Z,1015.53
2017-08-21T04:10:46.913Z,1015.53
2017-08-21T04:11:46.937Z,1015.54
2017-08-21T04:12:46.955Z,1015.56
2017-08-21T04:13:46.980Z,1015.53
2017-08-21T04:14:47.005Z,1015.53
2017-08-21T04:15:47.028Z,1015.59
2017-08-21T04:16:47.052Z,1015.59
2017-08-21T04:17:47.073Z,1015.54
2017-08-21T04:18:47.094Z,1015.55
2017-08-21T04:20:47.142Z,1015.55
2017-08-21T04:21:47.169Z,1015.56
2017-08-21T04:22:47.187Z,1015.53
2017-08-21T04:23:47.209Z,1015.56
2017-08-21T04:24:47.235Z,1015.55
2017-08-21T04:25:47.259Z,1015.55
2017-08-21T04:26:47.280Z,1015.59
2017-08-21T04:27:47.304Z,1015.53
2017-08-21T04:28:47.333Z,1015.59
2017-08-21T04:29:47.351Z,1015.63
2017-08-21T04:30:47.371Z,1015.63
2017-08-21T04:31:47.394Z,1015.6
2017-08-21T04:32:47.418Z,1015.59
2017-08-21T04:33:47.440Z,1015.61
2017-08-21T04:34:47.463Z,1015.65
2017-08-21T04:36:47.512Z,1015.64
2017-08-21T04:37:47.535Z,1015.63
2017-08-21T04:38:47.560Z,1015.68
2017-08-21T04:39:47.580Z,1015.67
2017-08-21T04:40:47.603Z,1015.62
2017-08-21T04:41:47.627Z,1015.66
2017-08-21T04:42:47.652Z,1015.67
2017-08-21T04:43:47.670Z,1015.65
2017-08-21T04:44:47.696Z,1015.66
2017-08-21T04:45:47.719Z,1015.68
2017-08-21T04:46:47.741Z,1015.7
2017-08-21T04:47:47.766Z,1015.69
2017-08-21T04:48:47.787Z,1015.69
2017-08-21T04:49:47.812Z,1015.72
2017-08-21T04:50:47.831Z,1015.71
2017-08-21T04:52:47.877Z,1015.68
2017-08-21T04:53:47.903Z,1015.69
2017-08-21T04:54:47.924Z,1015.74
2017-08-21T04:55:47.947Z,1015.68
2017-08-21T04:56:47.972Z,1015.75
2017-08-21T04:57:47.993Z,1015.71
2017-08-21T04:58:48.016Z,1015.7
2017-08-21T04:59:48.041Z,1015.71
2017-08-21T05:00:48.068Z,1015.71
2017-08-21T05:01:48.088Z,1015.7
2017-08-21T05:02:48.113Z,1015.72
2017-08-21T05:03:48.132Z,1015.71
2017-08-21T05:04:48.156Z,1015.7
2017-08-21T05:05:48.180Z,1015.71
2017-08-21T05:07:48.228Z,1015.71
2017-08-21T05:08:48.249Z,1015.69
2017-08-21T05:09:48.269Z,1015.67
2017-08-21T05:10:48.297Z,1015.71
2017-08-21T05:11:48.321Z,1015.72
2017-08-21T05:12:48.341Z,1015.67
2017-08-21T05:13:48.362Z,1015.64
2017-08-21T05:14:48.389Z,1015.7
2017-08-21T05:15:48.412Z,1015.65
2017-08-21T05:16:48.433Z,1015.68
2017-08-21T05:17:48.456Z,1015.66
2017-08-21T05:18:48.484Z,1015.66
2017-08-21T05:19:48.505Z,1015.66
2017-08-21T05:20:48.525Z,1015.65
2017-08-21T05:21:48.547Z,1015.65
2017-08-21T05:22:48.573Z,1015.67
2017-08-21T05:23:48.598Z,1015.72
2017-08-21T05:24:48.619Z,1015.68
2017-08-21T05:25:48.643Z,1015.64
2017-08-21T05:26:48.666Z,1015.71
2017-08-21T05:27:48.688Z,1015.72
2017-08-21T05:28:48.709Z,1015.7
2017-08-21T05:29:48.737Z,1015.73
2017-08-21T05:30:48.760Z,1015.7
2017-08-21T05:31:48.781Z,1015.75
2017-08-21T05:32:48.810Z,1015.78
2017-08-21T05:33:48.831Z,1015.75
2017-08-21T05:34:48.853Z,1015.79
2017-08-21T05:35:48.876Z,1015.78
2017-08-21T05:36:48.899Z,1015.75
2017-08-21T05:37:48.921Z,1015.76
2017-08-21T05:39:48.969Z,1015.79
2017-08-21T05:40:48.993Z,1015.78
2017-08-21T05:41:49.016Z,1015.79
2017-08-21T05:42:49.039Z,1015.8
2017-08-21T05:43:49.064Z,1015.84
2017-08-21T05:44:49.083Z,1015.83
2017-08-21T05:45:49.105Z,1015.76
2017-08-21T05:46:49.128Z,1015.81
2017-08-21T05:47:49.154Z,1015.83
2017-08-21T05:48:49.178Z,1015.85
2017-08-21T05:49:49.202Z,1015.89
2017-08-21T05:50:49.230Z,1015.89
2017-08-21T05:51:49.250Z,1015.89
2017-08-21T05:52:49.268Z,1015.93
2017-08-21T05:53:49.300Z,1015.94
2017-08-21T05:55:49.341Z,1015.93
2017-08-21T05:56:49.366Z,1015.94
2017-08-21T05:57:49.387Z,1015.93
2017-08-21T05:58:49.407Z,1015.99
2017-08-21T05:59:49.432Z,1015.94
2017-08-21T06:00:49.456Z,1015.91
2017-08-21T06:01:49.476Z,1015.93
2017-08-21T06:02:49.500Z,1015.98
2017-08-21T06:03:49.525Z,1016
2017-08-21T06:04:49.551Z,1016.03
2017-08-21T06:05:49.573Z,1016.05
2017-08-21T06:06:49.596Z,1016.08
2017-08-21T06:07:49.618Z,1016.06
2017-08-21T06:08:49.640Z,1016.06
2017-08-21T06:09:49.663Z,1016.04
2017-08-21T06:11:49.707Z,1016.05
2017-08-21T06:12:49.740Z,1016.09
2017-08-21T06:13:49.757Z,1016.01
2017-08-21T06:14:49.779Z,1016
2017-08-21T06:15:49.800Z,1016.03
2017-08-21T06:16:49.825Z,1016
2017-08-21T06:17:49.852Z,1016.02
2017-08-21T06:18:49.876Z,1016
2017-08-21T06:19:49.897Z,1016.02
2017-08-21T06:20:49.923Z,1016.02
2017-08-21T06:21:49.942Z,1016.03
2017-08-21T06:22:49.967Z,1016.03
2017-08-21T06:23:49.989Z,1016.24
2017-08-21T06:24:50.015Z,1016.61
2017-08-21T06:25:50.036Z,1016.04
2017-08-21T06:27:50.081Z,1015.98
2017-08-21T06:28:50.105Z,1016.02
2017-08-21T06:29:50.130Z,1016.05
2017-08-21T06:30:50.153Z,1016.01
2017-08-21T06:31:50.179Z,1016.04
2017-08-21T06:32:50.201Z,1016.01
2017-08-21T06:33:50.222Z,1016.08
2017-08-21T06:34:50.251Z,1016.1
2017-08-21T06:35:50.268Z,1016.05
2017-08-21T06:36:50.297Z,1016.08
2017-08-21T06:37:50.323Z,1016.12
2017-08-21T06:38:50.351Z,1016.05
2017-08-21T06:39:50.369Z,1016.13
2017-08-21T06:40:50.391Z,1016.11
2017-08-21T06:42:50.440Z,1016.13
2017-08-21T06:43:50.462Z,1016.14
2017-08-21T06:44:50.489Z,1016.16
2017-08-21T06:45:50.512Z,1016.14
2017-08-21T06:46:50.531Z,1016.19
2017-08-21T06:47:50.556Z,1016.15
2017-08-21T06:48:50.582Z,1016.15
2017-08-21T06:49:50.601Z,1016.16
2017-08-21T06:50:50.628Z,1016.16
2017-08-21T06:51:50.649Z,1016.17
2017-08-21T06:52:50.677Z,1016.13
2017-08-21T06:53:50.697Z,1016.12
2017-08-21T06:54:50.725Z,1016.11
2017-08-21T06:55:50.751Z,1016.16
2017-08-21T06:56:50.772Z,1016.15
2017-08-21T06:57:50.796Z,1016.14
2017-08-21T06:58:50.821Z,1016.17
2017-08-21T06:59:50.843Z,1016.14
2017-08-21T07:00:50.867Z,1016.15
2017-08-21T07:01:50.890Z,1016.15
2017-08-21T07:02:50.916Z,1016.17
2017-08-21T07:03:50.937Z,1016.08
2017-08-21T07:04:50.960Z,1016.1
2017-08-21T07:05:50.985Z,1016.35
2017-08-21T07:06:51.013Z,1016.2
2017-08-21T07:07:51.032Z,1016.19
2017-08-21T07:08:51.056Z,1016.22
2017-08-21T07:09:51.081Z,1016.18
2017-08-21T07:10:51.104Z,1016.19
2017-08-21T07:11:51.130Z,1016.18
2017-08-21T07:12:51.149Z,1016.16
2017-08-21T07:14:51.201Z,1016.21
2017-08-21T07:15:51.223Z,1016.18
2017-08-21T07:16:51.249Z,1016.2
2017-08-21T07:17:51.272Z,1016.23
2017-08-21T07:18:51.298Z,1016.19
2017-08-21T07:19:51.319Z,1016.19
2017-08-21T07:20:51.345Z,1016.19
2017-08-21T07:21:51.367Z,1016.26
2017-08-21T07:22:51.390Z,1016.2
2017-08-21T07:23:51.419Z,1016.24
2017-08-21T07:24:51.442Z,1016.23
2017-08-21T07:25:51.465Z,1016.28
2017-08-21T07:26:51.488Z,1016.24
2017-08-21T07:27:51.513Z,1016.23
2017-08-21T07:28:51.539Z,1016.24
2017-08-21T07:30:51.589Z,1016.27
2017-08-21T07:31:51.610Z,1016.27
2017-08-21T07:32:51.634Z,1016.27
2017-08-21T07:33:51.661Z,1016.26
2017-08-21T07:34:51.682Z,1016.28
2017-08-21T07:35:51.703Z,1016.24
2017-08-21T07:36:51.732Z,1016.23
2017-08-21T07:37:51.758Z,1016.26
2017-08-21T07:38:51.779Z,1016.28
2017-08-21T07:39:51.804Z,1016.23
2017-08-21T07:40:51.828Z,1016.28
2017-08-21T07:41:51.853Z,1016.3
2017-08-21T07:42:51.873Z,1016.33
2017-08-21T07:43:51.901Z,1016.22
2017-08-21T07:44:51.926Z,1016.33
2017-08-21T07:46:51.976Z,1016.32
2017-08-21T07:47:51.994Z,1016.26
2017-08-21T07:48:52.022Z,1016.33
2017-08-21T07:49:52.045Z,1016.36
2017-08-21T07:50:52.067Z,1016.36
2017-08-21T07:51:52.094Z,1016.34
2017-08-21T07:52:52.119Z,1016.31
2017-08-21T07:53:52.145Z,1016.35
2017-08-21T07:54:52.184Z,1016.91
2017-08-21T07:55:52.190Z,1016.32
2017-08-21T07:56:52.214Z,1016.32
2017-08-21T07:57:52.242Z,1016.31
2017-08-21T07:58:52.262Z,1016.31
2017-08-21T07:59:52.289Z,1016.27
2017-08-21T08:00:52.311Z,1016.26
2017-08-21T08:02:52.359Z,1016.36
2017-08-21T08:03:52.389Z,1016.28
2017-08-21T08:04:52.415Z,1016.33
2017-08-21T08:05:52.435Z,1016.32
2017-08-21T08:06:52.461Z,1016.35
2017-08-21T08:07:52.485Z,1016.62
2017-08-21T08:08:52.511Z,1016.67
2017-08-21T08:09:52.537Z,1016.67
2017-08-21T08:10:52.559Z,1016.46
2017-08-21T08:11:52.587Z,1016.73
2017-08-21T08:12:52.610Z,1016.75
2017-08-21T08:13:52.637Z,1016.45
2017-08-21T08:14:52.664Z,1016.43
2017-08-21T08:15:52.687Z,1016.43
2017-08-21T08:17:52.741Z,1016.35
2017-08-21T08:18:52.771Z,1016.34
2017-08-21T08:19:52.799Z,1016.33
2017-08-21T08:20:52.825Z,1016.51
2017-08-21T08:21:52.854Z,1016.41
2017-08-21T08:22:52.875Z,1016.36
2017-08-21T08:23:52.905Z,1016.4
2017-08-21T08:24:52.929Z,1016.32
2017-08-21T08:25:52.959Z,1016.28
2017-08-21T08:26:52.983Z,1016.28
2017-08-21T08:27:53.011Z,1016.27
2017-08-21T08:28:53.039Z,1016.3
2017-08-21T08:29:53.059Z,1016.28
2017-08-21T08:30:53.093Z,1016.21
2017-08-21T08:31:53.113Z,1016.25
2017-08-21T08:32:53.139Z,1016.49
2017-08-21T08:33:53.167Z,1016.22
2017-08-21T08:34:53.196Z,1016.25
2017-08-21T08:35:53.221Z,1016.27
2017-08-21T08:36:53.247Z,1016.32
2017-08-21T08:37:53.271Z,1016.33
2017-08-21T08:38:53.295Z,1016.3
2017-08-21T08:39:53.326Z,1016.35
2017-08-21T08:40:53.349Z,1016.27
2017-08-21T08:41:53.375Z,1016.25
2017-08-21T08:42:53.399Z,1016.3
2017-08-21T08:43:53.426Z,1016.3
2017-08-21T08:44:53.450Z,1016.33
2017-08-21T08:45:53.479Z,1016.29
2017-08-21T08:46:53.508Z,1016.43
2017-08-21T08:47:53.529Z,1016.34
2017-08-21T08:49:53.577Z,1016.35
2017-08-21T08:50:53.607Z,1016.41
2017-08-21T08:51:53.633Z,1016.35
2017-08-21T08:52:53.658Z,1016.42
2017-08-21T08:53:53.683Z,1016.44
2017-08-21T08:54:53.715Z,1016.34
2017-08-21T08:55:53.738Z,1016.39
2017-08-21T08:56:53.760Z,1016.38
2017-08-21T08:57:53.795Z,1016.4
2017-08-21T08:58:53.822Z,1016.39
2017-08-21T08:59:53.850Z,1016.41
2017-08-21T09:00:53.878Z,1016.43
2017-08-21T09:01:53.906Z,1016.4
2017-08-21T09:02:53.934Z,1016.43
2017-08-21T09:03:53.963Z,1016.42
2017-08-21T09:05:54.017Z,1016.35
2017-08-21T09:06:54.049Z,1016.31
2017-08-21T09:07:54.075Z,1016.34
2017-08-21T09:08:54.105Z,1016.35
2017-08-21T09:09:54.137Z,1016.34
2017-08-21T09:10:54.164Z,1016.31
2017-08-21T09:11:54.189Z,1016.4
2017-08-21T09:12:54.221Z,1016.35
2017-08-21T09:13:54.250Z,1016.34
2017-08-21T09:14:54.278Z,1016.33
2017-08-21T09:15:54.307Z,1016.33
2017-08-21T09:16:54.334Z,1016.31
2017-08-21T09:17:54.357Z,1016.36
2017-08-21T09:18:54.388Z,1016.4
2017-08-21T09:19:54.416Z,1016.44
2017-08-21T09:21:54.471Z,1016.4
2017-08-21T09:22:54.497Z,1016.32
2017-08-21T09:23:54.527Z,1016.36
2017-08-21T09:24:54.554Z,1016.4
2017-08-21T09:25:54.583Z,1016.32
2017-08-21T09:26:54.607Z,1016.32
2017-08-21T09:27:54.639Z,1016.37
2017-08-21T09:28:54.665Z,1016.27
2017-08-21T09:29:54.693Z,1016.31
2017-08-21T09:30:54.722Z,1016.23
2017-08-21T09:31:54.751Z,1016.21
2017-08-21T09:32:54.779Z,1016.28
2017-08-21T09:33:54.807Z,1016.25
2017-08-21T09:34:54.838Z,1016.24
2017-08-21T09:35:54.862Z,1016.32
2017-08-21T09:37:54.915Z,1016.22
2017-08-21T09:38:54.947Z,1016.21
2017-08-21T09:39:54.970Z,1016.24
2017-08-21T09:40:55.000Z,1016.16
2017-08-21T09:41:55.028Z,1016.13
2017-08-21T09:42:55.051Z,1016.16
2017-08-21T09:43:55.078Z,1016.17
2017-08-21T09:44:55.126Z,1016.16
2017-08-21T09:45:55.133Z,1016.16
2017-08-21T09:46:55.158Z,1016.16
2017-08-21T09:47:55.187Z,1016.18
2017-08-21T09:48:55.211Z,1016.1
2017-08-21T09:49:55.241Z,1016.17
2017-08-21T09:50:55.264Z,1016.15
2017-08-21T09:52:55.321Z,1016.18
2017-08-21T09:53:55.348Z,1016.24
2017-08-21T09:54:55.376Z,1016.22
2017-08-21T09:55:55.401Z,1016.19
2017-08-21T09:56:55.428Z,1016.15
2017-08-21T09:57:55.453Z,1016.16
2017-08-21T09:58:55.477Z,1016.13
2017-08-21T09:59:55.502Z,1016.1
2017-08-21T10:00:55.533Z,1016.11
2017-08-21T10:01:55.558Z,1016.07
2017-08-21T10:02:55.585Z,1016.09
2017-08-21T10:03:55.611Z,1016.05
2017-08-21T10:04:55.636Z,1016.06
2017-08-21T10:05:55.666Z,1016.02
2017-08-21T10:06:55.690Z,1016.03
2017-08-21T10:07:55.716Z,1016.07
2017-08-21T10:08:55.745Z,1016.04
2017-08-21T10:09:55.768Z,1016.01
2017-08-21T10:10:55.797Z,1016
2017-08-21T10:11:55.818Z,1016.03
2017-08-21T10:12:55.850Z,1016.02
2017-08-21T10:13:55.876Z,1016
2017-08-21T10:14:55.903Z,1016.03
2017-08-21T10:15:55.926Z,1015.98
2017-08-21T10:16:55.956Z,1016.01
2017-08-21T10:17:55.982Z,1016
2017-08-21T10:18:56.003Z,1016
2017-08-21T10:19:56.031Z,1016
2017-08-21T10:20:56.056Z,1015.98
2017-08-21T10:21:56.086Z,1015.98
2017-08-21T10:22:56.111Z,1015.96
2017-08-21T10:24:56.164Z,1015.97
2017-08-21T10:25:56.188Z,1015.98
2017-08-21T10:26:56.217Z,1015.97
2017-08-21T10:27:56.239Z,1016
2017-08-21T10:28:56.270Z,1015.99
2017-08-21T10:29:56.295Z,1016.02
2017-08-21T10:30:56.323Z,1016.02
2017-08-21T10:31:56.343Z,1015.96
2017-08-21T10:32:56.374Z,1015.98
2017-08-21T10:33:56.396Z,1015.98
2017-08-21T10:34:56.424Z,1015.95
2017-08-21T10:35:56.450Z,1015.93
2017-08-21T10:36:56.476Z,1015.92
2017-08-21T10:37:56.497Z,1015.95
2017-08-21T10:38:56.525Z,1015.95
2017-08-21T10:40:56.578Z,1015.92
2017-08-21T10:41:56.605Z,1015.94
2017-08-21T10:42:56.628Z,1015.92
2017-08-21T10:43:56.660Z,1015.94
2017-08-21T10:44:56.681Z,1015.91
2017-08-21T10:45:56.707Z,1015.89
2017-08-21T10:46:56.732Z,1015.89
2017-08-21T10:47:56.761Z,1015.87
2017-08-21T10:48:56.785Z,1015.85
2017-08-21T10:49:56.813Z,1015.82
2017-08-21T10:50:56.838Z,1015.82
2017-08-21T10:51:56.864Z,1015.86
2017-08-21T10:52:56.889Z,1015.82
2017-08-21T10:53:56.915Z,1015.81
2017-08-21T10:54:56.944Z,1015.81
2017-08-21T10:56:56.994Z,1015.83
2017-08-21T10:57:57.019Z,1015.8
2017-08-21T10:58:57.046Z,1015.81
2017-08-21T10:59:57.069Z,1015.89
2017-08-21T11:00:57.094Z,1015.84
2017-08-21T11:01:57.119Z,1015.89
2017-08-21T11:02:57.147Z,1015.87
2017-08-21T11:03:57.174Z,1015.91
2017-08-21T11:04:57.200Z,1015.75
2017-08-21T11:05:57.220Z,1015.77
2017-08-21T11:06:57.250Z,1015.75
2017-08-21T11:07:57.273Z,1015.74
2017-08-21T11:08:57.302Z,1015.8
2017-08-21T11:09:57.323Z,1015.74
2017-08-21T11:10:57.353Z,1015.74
2017-08-21T11:12:57.406Z,1015.72
2017-08-21T11:13:57.432Z,1015.77
2017-08-21T11:14:57.454Z,1015.85
2017-08-21T11:15:57.483Z,1015.77
2017-08-21T11:16:57.508Z,1015.75
2017-08-21T11:17:57.535Z,1015.84
2017-08-21T11:18:57.563Z,1015.79
2017-08-21T11:19:57.586Z,1015.75
2017-08-21T11:20:57.612Z,1015.74
2017-08-21T11:21:57.633Z,1015.71
2017-08-21T11:22:57.661Z,1015.76
2017-08-21T11:23:57.688Z,1015.69
2017-08-21T11:24:57.709Z,1015.68
2017-08-21T11:25:57.741Z,1015.69
2017-08-21T11:27:57.793Z,1015.7
2017-08-21T11:28:57.818Z,1015.67
2017-08-21T11:29:57.842Z,1015.63
2017-08-21T11:30:57.864Z,1015.61
2017-08-21T11:31:57.892Z,1015.56
2017-08-21T11:32:57.916Z,1015.5
2017-08-21T11:33:57.941Z,1015.47
2017-08-21T11:34:57.971Z,1015.5
2017-08-21T11:35:57.991Z,1015.45
2017-08-21T11:36:58.018Z,1015.5
2017-08-21T11:37:58.043Z,1015.43
2017-08-21T11:38:58.072Z,1015.45
2017-08-21T11:39:58.095Z,1015.45
2017-08-21T11:40:58.122Z,1015.53
2017-08-21T11:41:58.149Z,1015.39
2017-08-21T11:42:58.174Z,1015.5
2017-08-21T11:43:58.198Z,1015.38
2017-08-21T11:44:58.222Z,1015.37
2017-08-21T11:45:58.251Z,1015.36
2017-08-21T11:46:58.274Z,1015.42
2017-08-21T11:47:58.296Z,1015.4
2017-08-21T11:48:58.326Z,1015.4
2017-08-21T11:49:58.354Z,1015.48
2017-08-21T11:50:58.375Z,1015.37
2017-08-21T11:51:58.404Z,1015.42
2017-08-21T11:52:58.430Z,1015.38
2017-08-21T11:53:58.454Z,1015.44
2017-08-21T11:54:58.485Z,1015.37
2017-08-21T11:55:58.506Z,1015.4
2017-08-21T11:56:58.534Z,1015.43
2017-08-21T11:57:58.558Z,1015.41
2017-08-21T11:59:58.612Z,1015.41
2017-08-21T12:00:58.635Z,1015.35
2017-08-21T12:01:58.664Z,1015.36
2017-08-21T12:02:58.692Z,1015.38
2017-08-21T12:03:58.716Z,1015.36
2017-08-21T12:04:58.737Z,1015.36
2017-08-21T12:05:58.768Z,1015.35
2017-08-21T12:06:58.794Z,1015.31
2017-08-21T12:07:58.819Z,1015.35
2017-08-21T12:08:58.848Z,1015.4
2017-08-21T12:09:58.869Z,1015.4
2017-08-21T12:10:58.896Z,1015.31
2017-08-21T12:11:58.922Z,1015.31
2017-08-21T12:12:58.946Z,1015.34
2017-08-21T12:13:58.978Z,1015.31
2017-08-21T12:15:59.029Z,1015.35
2017-08-21T12:16:59.055Z,1015.34
2017-08-21T12:17:59.081Z,1015.36
2017-08-21T12:18:59.109Z,1015.36
2017-08-21T12:19:59.137Z,1015.35
2017-08-21T12:20:59.161Z,1015.34
2017-08-21T12:21:59.188Z,1015.27
2017-08-21T12:22:59.214Z,1015.36
2017-08-21T12:23:59.242Z,1015.29
2017-08-21T12:24:59.265Z,1015.27
2017-08-21T12:25:59.294Z,1015.25
2017-08-21T12:26:59.319Z,1015.27
2017-08-21T12:27:59.346Z,1015.28
2017-08-21T12:28:59.371Z,1015.24
2017-08-21T12:29:59.401Z,1015.29
2017-08-21T12:31:59.449Z,1015.21
2017-08-21T12:32:59.478Z,1015.19
2017-08-21T12:33:59.505Z,1015.16
2017-08-21T12:34:59.548Z,1015.14
2017-08-21T12:35:59.557Z,1015.28
2017-08-21T12:36:59.583Z,1015.27
2017-08-21T12:37:59.607Z,1015.27
2017-08-21T12:38:59.637Z,1015.3
2017-08-21T12:39:59.661Z,1015.29
2017-08-21T12:40:59.684Z,1015.27
2017-08-21T12:41:59.713Z,1015.25
2017-08-21T12:42:59.734Z,1015.28
2017-08-21T12:43:59.765Z,1015.31
2017-08-21T12:44:59.792Z,1015.25
2017-08-21T12:45:59.819Z,1015.23
2017-08-21T12:47:59.869Z,1015.17
2017-08-21T12:48:59.894Z,1015.22
2017-08-21T12:49:59.923Z,1015.18